Vicki K — WDI5136 — position and weather

sailwx.info

Track history (hours):
 
Tides and Currents Weather Stations Pressure Air Temp Water Temp Dewpoint Dewpoint Depression Visibility Wind Speed Wind Dir Waves Ship Positions

Vicki K

Owner: Charca Fish VIII LLC, mill valley, CA. More information available from US FCC via Universal Licensing System and Coast Guard Vessel Documentation Center.

Last reported at 2017-Oct-18 05:50 UTC. Time now 2017-Oct-18 06:06 UTC.
Position N 46°54' W 124°06'.

Length 32 m; draft 4.5 m.

Type: Fishing. MMSI: 367705530.

Date/timePositionNaut miles runAvg speedWind from/ knotsBaromVisibWave heightAir tempDewpointWater temp
2017-Oct-18 05:50N 46°54' W 124°06'0 0.0
2017-Oct-18 05:28N 46°54' W 124°06'0 0.0
2017-Oct-18 05:00N 46°54' W 124°06'0 0.0
2017-Oct-18 04:19N 46°54' W 124°06'0 0.0
2017-Oct-18 04:00N 46°54' W 124°06'0 0.0
2017-Oct-18 03:30N 46°54' W 124°06'0 0.0
2017-Oct-17 19:11N 46°54' W 124°06'0 0.0
2017-Oct-17 19:01N 46°54' W 124°06'0 0.0
2017-Oct-17 18:30N 46°54' W 124°06'0 0.0
2017-Oct-17 16:08N 46°54' W 124°06'0 0.0
2017-Oct-17 15:57N 46°54' W 124°06'0 0.0
2017-Oct-17 15:12N 46°54' W 124°06'0 0.0
2017-Oct-17 14:55N 46°54' W 124°06'0 0.0
2017-Oct-17 14:27N 46°54' W 124°06'0 0.0
2017-Oct-17 13:22N 46°54' W 124°06'0 0.0
2017-Oct-17 12:59N 46°54' W 124°06'0 0.0
2017-Oct-17 11:44N 46°54' W 124°06'0 0.0
2017-Oct-17 10:07N 46°54' W 124°06'0 0.0
2017-Oct-17 09:47N 46°54' W 124°06'0 0.0
2017-Oct-17 09:30N 46°54' W 124°06'0 0.0
2017-Oct-17 09:00N 46°54' W 124°06'0 0.0
2017-Oct-17 08:29N 46°54' W 124°06'0 0.0
2017-Oct-17 07:57N 46°54' W 124°06'0 0.0
2017-Oct-17 07:25N 46°54' W 124°06'0 0.0
2017-Oct-17 06:57N 46°54' W 124°06'0 0.0
2017-Oct-17 06:28N 46°54' W 124°06'0 0.0
2017-Oct-17 06:00N 46°54' W 124°06'0 0.0
2017-Oct-17 05:29N 46°54' W 124°06'0 0.0
2017-Oct-17 04:57N 46°54' W 124°06'0 0.0
2017-Oct-17 04:29N 46°54' W 124°06'0 0.0
2017-Oct-17 04:00N 46°54' W 124°06'0 0.0
2017-Oct-17 03:15N 46°54' W 124°06'0 0.0
2017-Oct-17 03:00N 46°54' W 124°06'0 0.0
2017-Oct-17 02:28N 46°54' W 124°06'1 1.2
2017-Oct-17 01:59N 46°55' W 124°07'3 6.0
2017-Oct-17 01:30N 46°55' W 124°11'3 5.8
2017-Oct-17 01:00N 46°53' W 124°14'3 5.6
2017-Oct-17 00:30N 46°52' W 124°18'3 6.0
2017-Oct-17 00:00N 46°51' W 124°22'3 6.1
2017-Oct-16 23:30N 46°50' W 124°26'3 6.2
2017-Oct-16 23:00N 46°49' W 124°30'3 6.2
2017-Oct-16 22:30N 46°47' W 124°34'3 6.3
2017-Oct-16 22:00N 46°46' W 124°39'3 6.0
2017-Oct-16 21:30N 46°44' W 124°42'3 6.2
2017-Oct-16 21:00N 46°43' W 124°46'3 6.5
2017-Oct-16 20:31N 46°42' W 124°51'3 6.3
2017-Oct-16 20:00N 46°40' W 124°55'3 6.3
2017-Oct-16 19:30N 46°39' W 124°59'3 6.6
2017-Oct-16 19:00N 46°38' W 125°04'3 6.7
2017-Oct-16 18:30N 46°36' W 125°08'3 6.6
2017-Oct-16 18:00N 46°35' W 125°13'3 6.5
2017-Oct-16 17:31N 46°34' W 125°17'3 6.7
2017-Oct-16 17:00N 46°33' W 125°22'3 6.3
2017-Oct-16 16:28N 46°31' W 125°26'3 7.0
2017-Oct-16 16:00N 46°30' W 125°30'4 7.1
2017-Oct-16 15:28N 46°28' W 125°35'3 7.2
2017-Oct-16 15:00N 46°27' W 125°39'5 7.1
2017-Oct-16 14:21N 46°25' W 125°46'7 7.1
2017-Oct-16 13:20N 46°25' W 125°56'2 7.3
2017-Oct-16 13:00N 46°25' W 125°60'  
Track history (hours):
 
Tides and Currents Weather Stations Pressure Air Temp Water Temp Dewpoint Dewpoint Depression Visibility Wind Speed Wind Dir Waves Ship Positions

Vicki K

Owner: Charca Fish VIII LLC, mill valley, CA. More information available from US FCC via Universal Licensing System and Coast Guard Vessel Documentation Center.

Last reported at 2017-Oct-18 05:50 UTC. Time now 2017-Oct-18 06:06 UTC.
Position N 46°54' W 124°06'.

Length 32 m; draft 4.5 m.

Type: Fishing. MMSI: 367705530.

Date/timePositionNaut miles runAvg speedWind from/ knotsBaromVisibWave heightAir tempDewpointWater temp
2017-Oct-18 05:50N 46°54' W 124°06'0 0.0
2017-Oct-18 05:28N 46°54' W 124°06'0 0.0
2017-Oct-18 05:00N 46°54' W 124°06'0 0.0
2017-Oct-18 04:19N 46°54' W 124°06'0 0.0
2017-Oct-18 04:00N 46°54' W 124°06'0 0.0
2017-Oct-18 03:30N 46°54' W 124°06'0 0.0
2017-Oct-17 19:11N 46°54' W 124°06'0 0.0
2017-Oct-17 19:01N 46°54' W 124°06'0 0.0
2017-Oct-17 18:30N 46°54' W 124°06'0 0.0
2017-Oct-17 16:08N 46°54' W 124°06'0 0.0
2017-Oct-17 15:57N 46°54' W 124°06'0 0.0
2017-Oct-17 15:12N 46°54' W 124°06'0 0.0
2017-Oct-17 14:55N 46°54' W 124°06'0 0.0
2017-Oct-17 14:27N 46°54' W 124°06'0 0.0
2017-Oct-17 13:22N 46°54' W 124°06'0 0.0
2017-Oct-17 12:59N 46°54' W 124°06'0 0.0
2017-Oct-17 11:44N 46°54' W 124°06'0 0.0
2017-Oct-17 10:07N 46°54' W 124°06'0 0.0
2017-Oct-17 09:47N 46°54' W 124°06'0 0.0
2017-Oct-17 09:30N 46°54' W 124°06'0 0.0
2017-Oct-17 09:00N 46°54' W 124°06'0 0.0
2017-Oct-17 08:29N 46°54' W 124°06'0 0.0
2017-Oct-17 07:57N 46°54' W 124°06'0 0.0
2017-Oct-17 07:25N 46°54' W 124°06'0 0.0
2017-Oct-17 06:57N 46°54' W 124°06'0 0.0
2017-Oct-17 06:28N 46°54' W 124°06'0 0.0
2017-Oct-17 06:00N 46°54' W 124°06'0 0.0
2017-Oct-17 05:29N 46°54' W 124°06'0 0.0
2017-Oct-17 04:57N 46°54' W 124°06'0 0.0
2017-Oct-17 04:29N 46°54' W 124°06'0 0.0
2017-Oct-17 04:00N 46°54' W 124°06'0 0.0
2017-Oct-17 03:15N 46°54' W 124°06'0 0.0
2017-Oct-17 03:00N 46°54' W 124°06'0 0.0
2017-Oct-17 02:28N 46°54' W 124°06'1 1.2
2017-Oct-17 01:59N 46°55' W 124°07'3 6.0
2017-Oct-17 01:30N 46°55' W 124°11'3 5.8
2017-Oct-17 01:00N 46°53' W 124°14'3 5.6
2017-Oct-17 00:30N 46°52' W 124°18'3 6.0
2017-Oct-17 00:00N 46°51' W 124°22'3 6.1
2017-Oct-16 23:30N 46°50' W 124°26'3 6.2
2017-Oct-16 23:00N 46°49' W 124°30'3 6.2
2017-Oct-16 22:30N 46°47' W 124°34'3 6.3
2017-Oct-16 22:00N 46°46' W 124°39'3 6.0
2017-Oct-16 21:30N 46°44' W 124°42'3 6.2
2017-Oct-16 21:00N 46°43' W 124°46'3 6.5
2017-Oct-16 20:31N 46°42' W 124°51'3 6.3
2017-Oct-16 20:00N 46°40' W 124°55'3 6.3
2017-Oct-16 19:30N 46°39' W 124°59'3 6.6
2017-Oct-16 19:00N 46°38' W 125°04'3 6.7
2017-Oct-16 18:30N 46°36' W 125°08'3 6.6
2017-Oct-16 18:00N 46°35' W 125°13'3 6.5
2017-Oct-16 17:31N 46°34' W 125°17'3 6.7
2017-Oct-16 17:00N 46°33' W 125°22'3 6.3
2017-Oct-16 16:28N 46°31' W 125°26'3 7.0
2017-Oct-16 16:00N 46°30' W 125°30'4 7.1
2017-Oct-16 15:28N 46°28' W 125°35'3 7.2
2017-Oct-16 15:00N 46°27' W 125°39'5 7.1
2017-Oct-16 14:21N 46°25' W 125°46'7 7.1
2017-Oct-16 13:20N 46°25' W 125°56'2 7.3
2017-Oct-16 13:00N 46°25' W 125°60'  

Dump ship's entire track history